Time;durP1;ratioP1;P1;durP2;ratioP2;P2;SDS_P1;SDS_P2;PMS_P1;PMS_P2;Temp;Humidity;BMP_temperature;BMP_pressure;BME280_temperature;BME280_humidity;BME280_pressure;Samples;Min_cycle;Max_cycle;Signal;HPM_P1;HPM_P2
2023/05/14 00:02:25;;;;;;;27.40;25.73;;;;;;;;;;5039751;28;20910;-81
2023/05/14 00:04:52;;;;;;;27.67;26.00;;;;;;;;;;5039928;28;20418;-81
2023/05/14 00:07:19;;;;;;;27.07;25.47;;;;;;;;;;5038305;28;20924;-81
2023/05/14 00:09:47;;;;;;;26.67;24.87;;;;;;;;;;5039751;28;20458;-81
2023/05/14 00:12:14;;;;;;;26.83;25.13;;;;;;;;;;5045672;28;20846;-79
2023/05/14 00:14:41;;;;;;;25.10;23.60;;;;;;;;;;5059841;28;20506;-81
2023/05/14 00:17:08;;;;;;;25.73;24.03;;;;;;;;;;5058796;28;20407;-81
2023/05/14 00:19:35;;;;;;;25.80;24.30;;;;;;;;;;5054070;28;20537;-80
2023/05/14 00:22:02;;;;;;;25.33;23.93;;;;;;;;;;5042055;28;20964;-82
2023/05/14 00:24:29;;;;;;;25.77;24.20;;;;;;;;;;5042655;28;20425;-81
2023/05/14 00:26:57;;;;;;;26.80;24.87;;;;;;;;;;5041660;28;20468;-80
2023/05/14 00:29:24;;;;;;;26.87;25.10;;;;;;;;;;5041690;28;20462;-81
2023/05/14 00:31:51;;;;;;;25.67;24.03;;;;;;;;;;5041724;28;20992;-81
2023/05/14 00:34:18;;;;;;;25.90;24.40;;;;;;;;;;5040813;28;20476;-81
2023/05/14 00:36:45;;;;;;;25.90;24.30;;;;;;;;;;5039921;28;20505;-81
2023/05/14 00:39:12;;;;;;;26.83;25.10;;;;;;;;;;5040271;28;20561;-81
2023/05/14 00:41:39;;;;;;;25.17;23.43;;;;;;;;;;5040045;28;20441;-82
2023/05/14 00:44:07;;;;;;;26.07;24.57;;;;;;;;;;5040753;28;20418;-81
2023/05/14 00:46:34;;;;;;;24.87;23.13;;;;;;;;;;5039573;28;20517;-81
2023/05/14 00:49:01;;;;;;;24.67;23.17;;;;;;;;;;5039843;28;20492;-81
2023/05/14 00:51:28;;;;;;;26.10;23.90;;;;;;;;;;5039720;28;20930;-82
2023/05/14 00:53:55;;;;;;;25.57;24.00;;;;;;;;;;5040498;28;20422;-81
2023/05/14 00:56:23;;;;;;;26.37;24.53;;;;;;;;;;5038986;28;20819;-81
2023/05/14 00:58:50;;;;;;;25.00;23.70;;;;;;;;;;5040038;28;20877;-81
2023/05/14 01:01:19;;;;;;;25.53;24.03;;;;;;;;;;5039040;28;20498;-81
2023/05/14 01:03:46;;;;;;;24.00;22.70;;;;;;;;;;5039882;28;20433;-80
2023/05/14 01:06:16;;;;;;;24.90;23.37;;;;;;;;;;5038906;28;20448;-81
2023/05/14 01:08:47;;;;;;;25.70;24.10;;;;;;;;;;5038959;28;20459;-81
2023/05/14 01:11:17;;;;;;;25.37;23.97;;;;;;;;;;5038093;28;20515;-81
2023/05/14 01:13:47;;;;;;;25.07;23.57;;;;;;;;;;5039111;28;20422;-81
2023/05/14 01:16:17;;;;;;;25.50;23.70;;;;;;;;;;5038316;28;20406;-81
2023/05/14 01:18:46;;;;;;;26.07;24.47;;;;;;;;;;5038647;28;20487;-81
2023/05/14 01:21:20;;;;;;;26.40;24.20;;;;;;;;;;5042529;28;20463;-81
2023/05/14 01:23:49;;;;;;;28.00;25.93;;;;;;;;;;5043996;28;20841;-81
2023/05/14 01:26:16;;;;;;;25.10;23.50;;;;;;;;;;5043176;28;20488;-81
2023/05/14 01:28:44;;;;;;;26.00;24.40;;;;;;;;;;5041367;28;20449;-81
2023/05/14 01:31:15;;;;;;;26.50;24.17;;;;;;;;;;5041144;28;20479;-81
2023/05/14 01:33:43;;;;;;;25.57;24.00;;;;;;;;;;5041345;28;20440;-81
2023/05/14 01:36:10;;;;;;;25.60;24.10;;;;;;;;;;5040044;28;21100;-81
2023/05/14 01:38:38;;;;;;;26.20;24.70;;;;;;;;;;5040774;28;20766;-81
2023/05/14 01:41:07;;;;;;;25.53;23.93;;;;;;;;;;5040704;28;20930;-82
2023/05/14 01:43:36;;;;;;;24.77;23.37;;;;;;;;;;5040278;28;20434;-81
2023/05/14 01:46:03;;;;;;;26.30;24.40;;;;;;;;;;5040113;28;20939;-82
2023/05/14 01:48:30;;;;;;;26.20;24.70;;;;;;;;;;5040318;28;20461;-81
2023/05/14 01:50:57;;;;;;;24.80;23.40;;;;;;;;;;5039770;28;20484;-81
2023/05/14 01:53:24;;;;;;;25.90;24.20;;;;;;;;;;5039222;28;20442;-81
2023/05/14 01:55:51;;;;;;;26.00;23.90;;;;;;;;;;5038893;28;20509;-81
2023/05/14 01:58:20;;;;;;;24.93;23.40;;;;;;;;;;5039293;28;20448;-81
2023/05/14 02:00:46;;;;;;;24.70;23.30;;;;;;;;;;5039315;28;20534;-80
2023/05/14 02:03:13;;;;;;;25.27;23.83;;;;;;;;;;5037909;28;20456;-81
2023/05/14 02:05:40;;;;;;;26.53;24.93;;;;;;;;;;5037691;28;20490;-81
2023/05/14 02:08:07;;;;;;;26.10;24.60;;;;;;;;;;5038570;28;20430;-81
2023/05/14 02:10:34;;;;;;;24.00;22.60;;;;;;;;;;5038382;28;21074;-81
2023/05/14 02:13:02;;;;;;;26.27;24.63;;;;;;;;;;5037631;28;20560;-81
2023/05/14 02:15:30;;;;;;;23.90;22.60;;;;;;;;;;5037816;28;20953;-81
2023/05/14 02:17:57;;;;;;;24.83;23.07;;;;;;;;;;5037672;28;20426;-81
2023/05/14 02:20:24;;;;;;;25.17;23.50;;;;;;;;;;5038353;28;20529;-81
2023/05/14 02:22:51;;;;;;;25.50;24.00;;;;;;;;;;5037205;28;20526;-81
2023/05/14 02:25:18;;;;;;;25.73;24.17;;;;;;;;;;5037960;28;20839;-81
2023/05/14 02:27:45;;;;;;;25.13;23.50;;;;;;;;;;5037670;28;20464;-80
2023/05/14 02:30:12;;;;;;;24.10;22.60;;;;;;;;;;5038257;28;20525;-81
2023/05/14 02:32:41;;;;;;;23.90;22.60;;;;;;;;;;5037828;28;20883;-81
2023/05/14 02:35:08;;;;;;;24.20;22.80;;;;;;;;;;5036645;28;20434;-81
2023/05/14 02:37:35;;;;;;;24.77;23.37;;;;;;;;;;5036589;28;20430;-81
2023/05/14 02:40:03;;;;;;;23.83;22.43;;;;;;;;;;5036540;28;21001;-81
2023/05/14 02:42:30;;;;;;;24.90;23.50;;;;;;;;;;5037173;28;20425;-81
2023/05/14 02:44:57;;;;;;;25.07;23.73;;;;;;;;;;5037716;28;20438;-81
2023/05/14 02:47:24;;;;;;;24.33;23.10;;;;;;;;;;5035982;28;21038;-81
2023/05/14 02:49:52;;;;;;;24.23;22.83;;;;;;;;;;5036549;28;20457;-81
2023/05/14 02:52:19;;;;;;;24.23;23.03;;;;;;;;;;5036606;28;20490;-81
2023/05/14 02:54:46;;;;;;;24.47;22.60;;;;;;;;;;5035620;28;20475;-81
2023/05/14 02:57:13;;;;;;;23.77;22.20;;;;;;;;;;5035681;28;20451;-81
2023/05/14 02:59:40;;;;;;;23.90;22.60;;;;;;;;;;5036384;28;20498;-81
2023/05/14 03:02:07;;;;;;;24.20;22.77;;;;;;;;;;5036493;28;20418;-81
2023/05/14 03:04:34;;;;;;;24.13;22.83;;;;;;;;;;5036504;28;20481;-81
2023/05/14 03:07:02;;;;;;;23.50;22.00;;;;;;;;;;5036532;28;20440;-81
2023/05/14 03:09:29;;;;;;;23.50;22.20;;;;;;;;;;5036974;28;20516;-81
2023/05/14 03:11:56;;;;;;;23.87;22.57;;;;;;;;;;5036752;28;20461;-80
2023/05/14 03:14:23;;;;;;;24.10;22.70;;;;;;;;;;5036665;28;20406;-81
2023/05/14 03:16:50;;;;;;;24.50;23.00;;;;;;;;;;5035792;28;20858;-80
2023/05/14 03:19:18;;;;;;;24.20;22.80;;;;;;;;;;5036526;28;20442;-81
2023/05/14 03:21:45;;;;;;;23.93;22.43;;;;;;;;;;5037187;28;20539;-81
2023/05/14 03:24:13;;;;;;;24.90;23.50;;;;;;;;;;5037213;28;20452;-81
2023/05/14 03:26:40;;;;;;;24.37;22.97;;;;;;;;;;5035430;28;20496;-81
2023/05/14 03:29:08;;;;;;;24.13;22.73;;;;;;;;;;5039691;28;20475;-81
2023/05/14 03:31:35;;;;;;;24.40;23.00;;;;;;;;;;5040781;28;21209;-81
2023/05/14 03:34:02;;;;;;;24.50;23.10;;;;;;;;;;5041024;28;20430;-81
2023/05/14 03:36:30;;;;;;;23.10;21.80;;;;;;;;;;5039776;28;20533;-81
2023/05/14 03:38:57;;;;;;;27.00;25.30;;;;;;;;;;5040132;28;20491;-81
2023/05/14 03:41:26;;;;;;;25.40;23.87;;;;;;;;;;5039803;28;20422;-81
2023/05/14 03:43:53;;;;;;;24.57;23.17;;;;;;;;;;5040767;28;20517;-79
2023/05/14 03:46:19;;;;;;;25.93;24.43;;;;;;;;;;5038927;28;20471;-78
2023/05/14 03:48:46;;;;;;;25.00;23.60;;;;;;;;;;5039961;28;20481;-79
2023/05/14 03:51:13;;;;;;;24.20;22.90;;;;;;;;;;5039877;28;20455;-79
2023/05/14 03:53:40;;;;;;;25.33;23.43;;;;;;;;;;5040076;28;20499;-79
2023/05/14 03:56:07;;;;;;;23.97;22.67;;;;;;;;;;5038907;28;20474;-79
2023/05/14 03:58:36;;;;;;;25.00;23.30;;;;;;;;;;5039131;28;20471;-78
2023/05/14 04:01:03;;;;;;;24.87;23.03;;;;;;;;;;5041006;28;20455;-78
2023/05/14 04:03:30;;;;;;;23.73;22.43;;;;;;;;;;5042478;28;20426;-79
2023/05/14 04:05:57;;;;;;;24.50;23.10;;;;;;;;;;5041180;28;20513;-78
2023/05/14 04:08:23;;;;;;;24.30;22.77;;;;;;;;;;5038298;28;20536;-79
2023/05/14 04:10:51;;;;;;;25.60;24.10;;;;;;;;;;5039254;28;20438;-77
2023/05/14 04:13:18;;;;;;;25.07;23.67;;;;;;;;;;5038770;28;20458;-79
2023/05/14 04:15:46;;;;;;;24.53;23.10;;;;;;;;;;5038575;28;20452;-78
2023/05/14 04:18:13;;;;;;;25.00;23.40;;;;;;;;;;5039325;28;20449;-78
2023/05/14 04:20:40;;;;;;;23.90;22.60;;;;;;;;;;5039208;28;20475;-78
2023/05/14 04:23:07;;;;;;;23.47;22.17;;;;;;;;;;5038457;28;20467;-78
2023/05/14 04:25:34;;;;;;;24.23;22.83;;;;;;;;;;5037409;28;20933;-79
2023/05/14 04:28:01;;;;;;;24.60;22.90;;;;;;;;;;5038300;28;20510;-78
2023/05/14 04:30:28;;;;;;;22.20;21.00;;;;;;;;;;5039354;28;20558;-78
2023/05/14 04:32:57;;;;;;;24.53;23.10;;;;;;;;;;5038717;28;20475;-78
2023/05/14 04:35:25;;;;;;;23.83;22.43;;;;;;;;;;5038203;28;20467;-78
2023/05/14 04:37:52;;;;;;;23.37;22.07;;;;;;;;;;5038939;28;20990;-78
2023/05/14 04:40:19;;;;;;;22.73;21.37;;;;;;;;;;5038324;28;20460;-78
2023/05/14 04:42:46;;;;;;;24.30;22.57;;;;;;;;;;5038898;28;20779;-78
2023/05/14 04:45:13;;;;;;;23.97;22.43;;;;;;;;;;5038761;28;20450;-78
2023/05/14 04:47:40;;;;;;;22.47;21.23;;;;;;;;;;5038323;28;20423;-78
2023/05/14 04:50:09;;;;;;;23.90;22.50;;;;;;;;;;5037884;28;20458;-78
2023/05/14 04:52:36;;;;;;;23.53;22.10;;;;;;;;;;5038146;28;20506;-78
2023/05/14 04:55:03;;;;;;;23.87;22.47;;;;;;;;;;5039131;28;20438;-78
2023/05/14 04:57:31;;;;;;;22.77;21.50;;;;;;;;;;5037551;28;20430;-78
2023/05/14 04:59:58;;;;;;;23.60;22.30;;;;;;;;;;5037908;28;20463;-78
2023/05/14 05:02:24;;;;;;;23.50;22.03;;;;;;;;;;5038245;28;20435;-78
2023/05/14 05:04:51;;;;;;;22.07;20.87;;;;;;;;;;5038079;28;20481;-78
2023/05/14 05:07:20;;;;;;;23.03;21.70;;;;;;;;;;5038138;28;20455;-78
2023/05/14 05:09:47;;;;;;;23.50;22.10;;;;;;;;;;5038834;28;20494;-78
2023/05/14 05:12:14;;;;;;;22.87;21.57;;;;;;;;;;5038485;28;20475;-79
2023/05/14 05:14:41;;;;;;;23.47;22.00;;;;;;;;;;5043467;28;20455;-78
2023/05/14 05:17:08;;;;;;;22.47;21.17;;;;;;;;;;5052534;28;20450;-78
2023/05/14 05:19:35;;;;;;;23.23;21.77;;;;;;;;;;5052501;28;20467;-78
2023/05/14 05:22:02;;;;;;;23.00;21.70;;;;;;;;;;5047357;28;20470;-79
2023/05/14 05:24:31;;;;;;;22.73;21.43;;;;;;;;;;5039674;28;20463;-78
2023/05/14 05:26:58;;;;;;;22.50;21.30;;;;;;;;;;5038761;28;20446;-78
2023/05/14 05:29:25;;;;;;;23.73;22.37;;;;;;;;;;5039336;28;20522;-78
2023/05/14 05:31:52;;;;;;;21.90;20.80;;;;;;;;;;5038972;28;20426;-78
2023/05/14 05:34:19;;;;;;;22.13;20.90;;;;;;;;;;5038942;28;20882;-78
2023/05/14 05:36:46;;;;;;;22.67;21.27;;;;;;;;;;5038294;28;20479;-79
2023/05/14 05:39:13;;;;;;;22.60;21.30;;;;;;;;;;5039166;28;20508;-78
2023/05/14 05:41:42;;;;;;;22.80;21.60;;;;;;;;;;5039270;28;20480;-79
2023/05/14 05:44:09;;;;;;;21.47;20.37;;;;;;;;;;5038958;28;20461;-78
2023/05/14 05:46:36;;;;;;;21.63;20.53;;;;;;;;;;5037971;28;20482;-78
2023/05/14 05:49:03;;;;;;;22.43;21.23;;;;;;;;;;5038355;28;20865;-79
2023/05/14 05:51:30;;;;;;;21.53;20.47;;;;;;;;;;5037431;28;20835;-78
2023/05/14 05:53:57;;;;;;;22.40;21.00;;;;;;;;;;5031450;28;20479;-78
2023/05/14 05:56:24;;;;;;;21.30;20.20;;;;;;;;;;5031080;28;20471;-78
2023/05/14 05:58:52;;;;;;;25.20;23.50;;;;;;;;;;5021384;28;20453;-78
2023/05/14 06:01:19;;;;;;;22.30;21.10;;;;;;;;;;5028170;28;20424;-79
2023/05/14 06:03:46;;;;;;;21.83;20.73;;;;;;;;;;5038939;28;20448;-79
2023/05/14 06:06:14;;;;;;;23.63;22.40;;;;;;;;;;5038476;28;20474;-78
2023/05/14 06:08:41;;;;;;;22.50;21.30;;;;;;;;;;5040788;28;20463;-78
2023/05/14 06:11:08;;;;;;;22.17;20.87;;;;;;;;;;5041786;28;20463;-78
2023/05/14 06:13:35;;;;;;;22.30;21.10;;;;;;;;;;5041045;28;20487;-78
2023/05/14 06:16:03;;;;;;;22.57;21.47;;;;;;;;;;5041170;28;20426;-78
2023/05/14 06:18:30;;;;;;;22.00;20.90;;;;;;;;;;5040993;28;20936;-79
2023/05/14 06:20:58;;;;;;;22.43;21.23;;;;;;;;;;5041798;28;20477;-79
2023/05/14 06:23:26;;;;;;;22.80;21.60;;;;;;;;;;5041141;28;20429;-79
2023/05/14 06:25:53;;;;;;;21.77;20.67;;;;;;;;;;5040419;28;21148;-79
2023/05/14 06:28:20;;;;;;;22.77;21.57;;;;;;;;;;5039914;28;20475;-79
2023/05/14 06:30:49;;;;;;;22.70;21.50;;;;;;;;;;5040645;28;20442;-79
2023/05/14 06:33:18;;;;;;;23.33;21.73;;;;;;;;;;5040149;28;20469;-79
2023/05/14 06:35:45;;;;;;;22.80;21.50;;;;;;;;;;5038996;28;20449;-79
2023/05/14 06:38:12;;;;;;;22.93;21.73;;;;;;;;;;5039354;28;20535;-79
2023/05/14 06:40:39;;;;;;;24.03;22.40;;;;;;;;;;5039185;28;20468;-79
2023/05/14 06:43:06;;;;;;;23.77;22.37;;;;;;;;;;5039209;28;20454;-79
2023/05/14 06:45:33;;;;;;;23.33;22.03;;;;;;;;;;5038611;28;20496;-78
2023/05/14 06:48:00;;;;;;;23.73;22.43;;;;;;;;;;5038104;28;20508;-79
2023/05/14 06:50:28;;;;;;;24.07;22.77;;;;;;;;;;5037936;28;20472;-79
2023/05/14 06:52:55;;;;;;;24.10;22.70;;;;;;;;;;5038549;28;20463;-79
2023/05/14 06:55:22;;;;;;;23.07;21.73;;;;;;;;;;5037779;28;20484;-79
2023/05/14 06:57:49;;;;;;;24.00;22.70;;;;;;;;;;5036379;28;20527;-79
2023/05/14 07:00:17;;;;;;;23.50;22.20;;;;;;;;;;5037548;28;21030;-78
2023/05/14 07:02:44;;;;;;;23.33;22.13;;;;;;;;;;5038957;28;20440;-79
2023/05/14 07:05:11;;;;;;;24.57;22.83;;;;;;;;;;5041742;28;20956;-79
2023/05/14 07:07:40;;;;;;;23.67;22.37;;;;;;;;;;5041322;28;20426;-78
2023/05/14 07:10:08;;;;;;;24.40;23.10;;;;;;;;;;5040243;28;20511;-79
2023/05/14 07:12:35;;;;;;;22.60;21.40;;;;;;;;;;5041335;28;20480;-79
2023/05/14 07:15:02;;;;;;;22.40;21.20;;;;;;;;;;5043414;28;20886;-79
2023/05/14 07:17:28;;;;;;;23.47;22.17;;;;;;;;;;5042972;28;20424;-79
2023/05/14 07:19:55;;;;;;;23.30;21.90;;;;;;;;;;5041910;28;20514;-79
2023/05/14 07:22:22;;;;;;;23.47;22.07;;;;;;;;;;5041915;28;20453;-78
2023/05/14 07:24:51;;;;;;;23.47;22.17;;;;;;;;;;5042010;28;20418;-78
2023/05/14 07:27:18;;;;;;;23.57;22.27;;;;;;;;;;5040573;28;20406;-79
2023/05/14 07:29:45;;;;;;;23.60;22.20;;;;;;;;;;5040451;28;20489;-79
2023/05/14 07:32:12;;;;;;;23.50;22.10;;;;;;;;;;5029400;28;20492;-79
2023/05/14 07:34:39;;;;;;;24.37;23.00;;;;;;;;;;5033467;28;20467;-79
2023/05/14 07:37:06;;;;;;;23.40;22.10;;;;;;;;;;5028018;28;20501;-79
2023/05/14 07:39:33;;;;;;;23.10;21.83;;;;;;;;;;5029171;28;20451;-79
2023/05/14 07:42:02;;;;;;;24.47;23.10;;;;;;;;;;5034778;28;20789;-78
2023/05/14 07:44:29;;;;;;;24.00;22.70;;;;;;;;;;5026363;28;20477;-79
2023/05/14 07:46:56;;;;;;;24.30;22.90;;;;;;;;;;5039490;28;20948;-78
2023/05/14 07:49:23;;;;;;;23.30;22.10;;;;;;;;;;5040032;28;20668;-78
2023/05/14 07:51:50;;;;;;;23.50;22.20;;;;;;;;;;5040648;28;20447;-79
2023/05/14 07:54:17;;;;;;;24.43;23.10;;;;;;;;;;5040765;28;20458;-78
2023/05/14 07:56:44;;;;;;;23.30;22.00;;;;;;;;;;5040629;28;20423;-78
2023/05/14 07:59:12;;;;;;;23.80;22.50;;;;;;;;;;5041034;28;20476;-79
2023/05/14 08:01:39;;;;;;;23.00;21.70;;;;;;;;;;5039044;28;20492;-79
2023/05/14 08:04:06;;;;;;;24.53;22.93;;;;;;;;;;5039929;28;20485;-78
2023/05/14 08:06:33;;;;;;;25.57;23.93;;;;;;;;;;5038270;28;21002;-78
2023/05/14 08:09:00;;;;;;;26.07;24.63;;;;;;;;;;5039417;28;20451;-78
2023/05/14 08:11:27;;;;;;;24.53;23.13;;;;;;;;;;5039060;28;20820;-78
2023/05/14 08:13:54;;;;;;;24.30;23.00;;;;;;;;;;5039504;28;20829;-79
2023/05/14 08:16:24;;;;;;;24.27;22.87;;;;;;;;;;5039193;28;20502;-79
2023/05/14 08:18:51;;;;;;;23.70;22.30;;;;;;;;;;5039244;28;20435;-79
2023/05/14 08:21:19;;;;;;;24.20;22.90;;;;;;;;;;5039255;28;20464;-79
2023/05/14 08:23:46;;;;;;;23.87;22.57;;;;;;;;;;5039606;28;20496;-79
2023/05/14 08:26:13;;;;;;;24.00;22.70;;;;;;;;;;5038821;28;20527;-79
2023/05/14 08:28:40;;;;;;;24.60;23.20;;;;;;;;;;5039429;28;20419;-79
2023/05/14 08:31:07;;;;;;;26.70;24.87;;;;;;;;;;5038977;28;20574;-78
2023/05/14 08:33:35;;;;;;;24.67;23.27;;;;;;;;;;5040003;28;20477;-79
2023/05/14 08:36:02;;;;;;;23.70;22.40;;;;;;;;;;5038866;28;20424;-79
2023/05/14 08:38:29;;;;;;;23.93;22.60;;;;;;;;;;5038928;28;20450;-77
2023/05/14 08:40:57;;;;;;;25.00;23.50;;;;;;;;;;5039245;28;20498;-78
2023/05/14 08:43:26;;;;;;;23.87;22.47;;;;;;;;;;5039012;28;20456;-78
2023/05/14 08:45:54;;;;;;;24.70;23.30;;;;;;;;;;5038539;28;20869;-79
2023/05/14 08:48:23;;;;;;;23.70;22.40;;;;;;;;;;5039211;28;20488;-79
2023/05/14 08:50:51;;;;;;;23.60;22.30;;;;;;;;;;5037816;28;20479;-78
2023/05/14 08:53:18;;;;;;;24.23;22.83;;;;;;;;;;5038140;28;20450;-79
2023/05/14 08:55:46;;;;;;;23.50;22.20;;;;;;;;;;5037339;28;20483;-79
2023/05/14 08:58:13;;;;;;;22.67;21.27;;;;;;;;;;5038590;28;20501;-78
2023/05/14 09:00:41;;;;;;;23.70;22.40;;;;;;;;;;5038062;28;20476;-79
2023/05/14 09:03:08;;;;;;;23.33;22.03;;;;;;;;;;5038518;28;20441;-78
2023/05/14 09:05:38;;;;;;;24.40;23.00;;;;;;;;;;5037331;28;21008;-78
2023/05/14 09:08:06;;;;;;;23.70;22.30;;;;;;;;;;5038246;28;20434;-79
2023/05/14 09:10:33;;;;;;;24.20;22.90;;;;;;;;;;5038468;28;20442;-79
2023/05/14 09:13:00;;;;;;;23.67;22.10;;;;;;;;;;5039549;28;20471;-79
2023/05/14 09:15:28;;;;;;;22.60;21.30;;;;;;;;;;5037383;28;20494;-78
2023/05/14 09:17:55;;;;;;;23.10;21.70;;;;;;;;;;5034893;28;20450;-86
2023/05/14 09:20:22;;;;;;;24.30;22.90;;;;;;;;;;5034492;28;20448;-85
2023/05/14 09:22:52;;;;;;;23.17;21.87;;;;;;;;;;5037031;28;20432;-80
2023/05/14 09:25:21;;;;;;;24.10;22.80;;;;;;;;;;5035560;28;20849;-77
2023/05/14 09:27:49;;;;;;;23.70;22.30;;;;;;;;;;5035186;28;20506;-80
2023/05/14 09:30:17;;;;;;;23.97;22.67;;;;;;;;;;5035514;28;20526;-80
2023/05/14 09:32:44;;;;;;;24.43;23.03;;;;;;;;;;5035908;28;20463;-80
2023/05/14 09:35:16;;;;;;;23.80;22.20;;;;;;;;;;5035299;28;20834;-80
2023/05/14 09:37:43;;;;;;;24.50;23.10;;;;;;;;;;5036173;28;20420;-80
2023/05/14 09:40:11;;;;;;;23.00;21.70;;;;;;;;;;5035827;28;20837;-79
2023/05/14 09:42:39;;;;;;;23.17;21.87;;;;;;;;;;5036732;28;20440;-80
2023/05/14 09:45:08;;;;;;;23.03;21.83;;;;;;;;;;5035232;28;20426;-82
2023/05/14 09:47:35;;;;;;;24.00;22.70;;;;;;;;;;5033863;28;20526;-79
2023/05/14 09:50:02;;;;;;;23.63;22.33;;;;;;;;;;5037234;28;20815;-79
2023/05/14 09:52:29;;;;;;;25.50;23.77;;;;;;;;;;5035874;28;20432;-79
2023/05/14 09:54:56;;;;;;;22.93;21.53;;;;;;;;;;5036410;28;20547;-79
2023/05/14 09:57:23;;;;;;;23.20;21.90;;;;;;;;;;5037497;28;20445;-80
2023/05/14 09:59:51;;;;;;;24.80;23.40;;;;;;;;;;5041651;28;20461;-79
2023/05/14 10:02:22;;;;;;;23.93;22.53;;;;;;;;;;5051950;28;20425;-79
2023/05/14 10:04:50;;;;;;;24.17;22.67;;;;;;;;;;5051961;28;21086;-80
2023/05/14 10:07:19;;;;;;;23.13;21.73;;;;;;;;;;5046024;28;20450;-81
2023/05/14 10:09:46;;;;;;;23.40;22.10;;;;;;;;;;5042658;28;20477;-80
2023/05/14 10:12:15;;;;;;;23.50;22.10;;;;;;;;;;5042626;28;20424;-80
2023/05/14 10:14:43;;;;;;;24.40;22.90;;;;;;;;;;5041838;28;20461;-81
2023/05/14 10:17:17;;;;;;;22.73;21.33;;;;;;;;;;5040925;28;20450;-80
2023/05/14 10:19:46;;;;;;;23.17;21.77;;;;;;;;;;5040261;28;20477;-81
2023/05/14 10:22:16;;;;;;;22.97;21.67;;;;;;;;;;5044088;28;20455;-81
2023/05/14 10:24:43;;;;;;;23.10;21.70;;;;;;;;;;5043374;28;20425;-81
2023/05/14 10:27:10;;;;;;;22.67;21.23;;;;;;;;;;5042950;28;20434;-81
2023/05/14 10:29:38;;;;;;;22.67;21.37;;;;;;;;;;5042238;28;20585;-80
2023/05/14 10:32:05;;;;;;;22.73;21.40;;;;;;;;;;5041506;28;20471;-80
2023/05/14 10:34:36;;;;;;;23.63;22.33;;;;;;;;;;5042552;28;20486;-80
2023/05/14 10:37:03;;;;;;;22.70;21.40;;;;;;;;;;5042006;28;20489;-81
2023/05/14 10:39:45;;;;;;;23.77;22.47;;;;;;;;;;5037653;28;20466;-81
2023/05/14 10:42:13;;;;;;;22.80;21.50;;;;;;;;;;5037861;28;20478;-81
2023/05/14 10:44:43;;;;;;;23.47;22.17;;;;;;;;;;5040037;28;20453;-81
2023/05/14 10:47:10;;;;;;;23.90;22.50;;;;;;;;;;5038871;28;20401;-81
2023/05/14 10:49:38;;;;;;;22.77;21.57;;;;;;;;;;5040282;28;20472;-81
2023/05/14 10:52:08;;;;;;;23.17;21.87;;;;;;;;;;5037699;28;20481;-81
2023/05/14 10:54:35;;;;;;;24.43;23.07;;;;;;;;;;5034495;28;20452;-81
2023/05/14 10:57:02;;;;;;;23.43;22.03;;;;;;;;;;5033511;28;20483;-80
2023/05/14 10:59:29;;;;;;;23.80;22.50;;;;;;;;;;5035737;28;20467;-80
2023/05/14 11:01:57;;;;;;;24.37;22.87;;;;;;;;;;5037524;28;20425;-80
2023/05/14 11:04:25;;;;;;;24.57;23.17;;;;;;;;;;5039872;28;20497;-80
2023/05/14 11:06:54;;;;;;;23.47;22.10;;;;;;;;;;5037954;28;20522;-80
2023/05/14 11:09:21;;;;;;;23.00;21.70;;;;;;;;;;5040832;28;20454;-85
2023/05/14 11:11:48;;;;;;;22.97;21.67;;;;;;;;;;5030467;28;20505;-79
2023/05/14 11:14:17;;;;;;;23.67;22.37;;;;;;;;;;5017378;28;20463;-87
2023/05/14 11:16:44;;;;;;;23.37;21.80;;;;;;;;;;5016778;28;20445;-83
2023/05/14 11:19:11;;;;;;;23.70;22.30;;;;;;;;;;5018428;28;21074;-83
2023/05/14 11:21:38;;;;;;;23.50;22.10;;;;;;;;;;5017793;28;20430;-82
2023/05/14 11:24:07;;;;;;;23.93;22.53;;;;;;;;;;5016944;28;20436;-82
2023/05/14 11:26:34;;;;;;;24.00;22.70;;;;;;;;;;5016483;28;20453;-83
2023/05/14 11:29:01;;;;;;;23.00;21.80;;;;;;;;;;5016692;28;20942;-83
2023/05/14 11:31:28;;;;;;;24.10;22.80;;;;;;;;;;5016480;28;20440;-82
2023/05/14 11:33:55;;;;;;;23.57;22.27;;;;;;;;;;5017028;28;20461;-82
2023/05/14 11:36:22;;;;;;;23.77;22.27;;;;;;;;;;5016500;28;20457;-83
2023/05/14 11:38:51;;;;;;;23.13;21.83;;;;;;;;;;5016517;28;20858;-83
2023/05/14 11:41:20;;;;;;;22.87;21.57;;;;;;;;;;5021724;28;20457;-82
2023/05/14 11:43:48;;;;;;;23.40;22.10;;;;;;;;;;5021379;28;20464;-83
2023/05/14 11:46:18;;;;;;;23.20;22.00;;;;;;;;;;5016437;28;20807;-83
2023/05/14 11:48:45;;;;;;;23.60;22.30;;;;;;;;;;5016107;28;20494;-82
2023/05/14 11:51:12;;;;;;;23.37;22.07;;;;;;;;;;5018792;28;20923;-83
2023/05/14 11:53:39;;;;;;;24.10;22.73;;;;;;;;;;5020980;28;20451;-83
2023/05/14 11:56:06;;;;;;;24.40;23.00;;;;;;;;;;5020758;28;20466;-82
2023/05/14 11:58:34;;;;;;;22.97;21.67;;;;;;;;;;5019993;28;20442;-83
2023/05/14 12:01:01;;;;;;;23.47;22.17;;;;;;;;;;5024549;28;20430;-83
2023/05/14 12:03:30;;;;;;;25.03;23.63;;;;;;;;;;5025704;28;20430;-83
2023/05/14 12:05:58;;;;;;;23.50;22.20;;;;;;;;;;5025129;28;20534;-83
2023/05/14 12:08:27;;;;;;;23.17;21.87;;;;;;;;;;5024426;28;20561;-82
2023/05/14 12:10:54;;;;;;;23.40;22.10;;;;;;;;;;5020504;28;20481;-83
2023/05/14 12:13:21;;;;;;;23.87;22.57;;;;;;;;;;5020539;28;20460;-82
2023/05/14 12:15:54;;;;;;;24.00;22.40;;;;;;;;;;5021088;28;20505;-82
2023/05/14 12:18:21;;;;;;;24.37;22.97;;;;;;;;;;5020641;28;20877;-82
2023/05/14 12:20:50;;;;;;;24.27;22.90;;;;;;;;;;5021420;28;20549;-82
2023/05/14 12:23:17;;;;;;;23.40;22.10;;;;;;;;;;5021521;28;20471;-82
2023/05/14 12:25:50;;;;;;;23.93;22.53;;;;;;;;;;5020047;28;20430;-82
2023/05/14 12:28:17;;;;;;;24.10;22.70;;;;;;;;;;5020863;28;20480;-82
2023/05/14 12:30:44;;;;;;;24.10;22.70;;;;;;;;;;5021676;28;20471;-82
2023/05/14 12:33:13;;;;;;;23.20;21.90;;;;;;;;;;5020886;28;20446;-82
2023/05/14 12:35:40;;;;;;;24.13;22.73;;;;;;;;;;5021264;28;20546;-82
2023/05/14 12:38:07;;;;;;;23.40;22.10;;;;;;;;;;5021149;28;20416;-83
2023/05/14 12:40:35;;;;;;;23.37;22.07;;;;;;;;;;5021710;28;20451;-83
2023/05/14 12:43:02;;;;;;;22.93;21.63;;;;;;;;;;5023720;28;20454;-83
2023/05/14 12:45:31;;;;;;;23.23;21.93;;;;;;;;;;5018936;28;20459;-81
2023/05/14 12:47:58;;;;;;;23.60;22.00;;;;;;;;;;5022793;28;20510;-82
2023/05/14 12:50:26;;;;;;;23.10;21.80;;;;;;;;;;5018982;28;20483;-82
2023/05/14 12:52:53;;;;;;;24.33;22.93;;;;;;;;;;5019614;28;20448;-82
2023/05/14 12:55:20;;;;;;;23.90;22.50;;;;;;;;;;5019103;28;20497;-83
2023/05/14 12:57:47;;;;;;;23.60;22.27;;;;;;;;;;5022968;28;20464;-83
2023/05/14 13:00:15;;;;;;;22.87;21.57;;;;;;;;;;5021010;28;20465;-83
2023/05/14 13:02:42;;;;;;;22.30;21.10;;;;;;;;;;5019905;28;20459;-82
2023/05/14 13:05:09;;;;;;;22.13;20.83;;;;;;;;;;5020214;28;20491;-83
2023/05/14 13:07:38;;;;;;;23.90;22.60;;;;;;;;;;5019918;28;20546;-83
2023/05/14 13:10:05;;;;;;;24.47;23.07;;;;;;;;;;5020570;28;20459;-82
2023/05/14 13:12:32;;;;;;;23.50;22.10;;;;;;;;;;5033694;28;20484;-82
2023/05/14 13:14:59;;;;;;;24.37;22.97;;;;;;;;;;5038575;28;20460;-83
2023/05/14 13:17:26;;;;;;;22.70;21.40;;;;;;;;;;5036719;28;20474;-82
2023/05/14 13:19:53;;;;;;;23.80;22.50;;;;;;;;;;5038924;28;20490;-82
2023/05/14 13:22:20;;;;;;;23.40;21.80;;;;;;;;;;5038998;28;20460;-83
2023/05/14 13:24:49;;;;;;;23.50;22.10;;;;;;;;;;5038902;28;20463;-83
2023/05/14 13:27:16;;;;;;;23.73;22.43;;;;;;;;;;5037098;28;21194;-83
2023/05/14 13:29:42;;;;;;;24.17;22.87;;;;;;;;;;5037784;28;20426;-84
2023/05/14 13:32:09;;;;;;;25.60;24.20;;;;;;;;;;5037567;28;20426;-83
2023/05/14 13:34:36;;;;;;;24.63;23.23;;;;;;;;;;5037888;28;21009;-83
2023/05/14 13:37:03;;;;;;;24.33;22.83;;;;;;;;;;5038250;28;20452;-82
2023/05/14 13:39:31;;;;;;;23.67;22.37;;;;;;;;;;5038850;28;20912;-83
2023/05/14 13:42:00;;;;;;;23.80;22.40;;;;;;;;;;5040516;28;20430;-83
2023/05/14 13:44:27;;;;;;;23.13;21.80;;;;;;;;;;5039145;28;20449;-83
2023/05/14 13:46:54;;;;;;;23.10;21.73;;;;;;;;;;5039348;28;20437;-83
2023/05/14 13:49:21;;;;;;;23.60;22.20;;;;;;;;;;5045060;28;20512;-82
2023/05/14 13:51:48;;;;;;;23.07;21.80;;;;;;;;;;5051068;28;20460;-87
2023/05/14 13:54:15;;;;;;;22.80;21.50;;;;;;;;;;5056684;28;20406;-88
2023/05/14 13:56:42;;;;;;;22.63;21.40;;;;;;;;;;5054187;28;20510;-83
2023/05/14 13:59:10;;;;;;;22.37;21.17;;;;;;;;;;5039297;28;20521;-82
2023/05/14 14:01:37;;;;;;;23.67;22.37;;;;;;;;;;5036934;28;20421;-82
2023/05/14 14:04:04;;;;;;;24.13;22.73;;;;;;;;;;5035542;28;20430;-82
2023/05/14 14:06:32;;;;;;;23.00;21.70;;;;;;;;;;5034874;28;20422;-81
2023/05/14 14:08:59;;;;;;;23.00;21.70;;;;;;;;;;5035332;28;20438;-82
2023/05/14 14:11:26;;;;;;;23.13;21.73;;;;;;;;;;5036943;28;20440;-82
2023/05/14 14:13:53;;;;;;;23.77;22.37;;;;;;;;;;5036855;28;20469;-81
2023/05/14 14:16:21;;;;;;;23.03;21.83;;;;;;;;;;5034727;28;20491;-82
2023/05/14 14:18:48;;;;;;;23.40;22.10;;;;;;;;;;5043260;28;20445;-81